createdAt,value
2019-01-23T00:01:25.324Z,43.97
2019-01-23T00:03:53.410Z,40.13
2019-01-23T00:06:21.500Z,47.53
2019-01-23T00:08:49.899Z,37.17
2019-01-23T00:11:18.303Z,42.67
2019-01-23T00:13:46.716Z,45.57
2019-01-23T00:16:15.116Z,39.33
2019-01-23T00:18:43.528Z,41.13
2019-01-23T00:21:11.932Z,37.57
2019-01-23T00:23:40.348Z,44.87
2019-01-23T00:26:08.756Z,39.10
2019-01-23T00:28:42.350Z,39.53
2019-01-23T00:31:07.308Z,44.47
2019-01-23T00:33:35.725Z,42.03
2019-01-23T00:36:04.498Z,45.37
2019-01-23T00:38:32.905Z,39.47
2019-01-23T00:41:01.313Z,44.93
2019-01-23T00:43:29.724Z,43.03
2019-01-23T00:45:58.133Z,45.13
2019-01-23T00:48:26.541Z,40.13
2019-01-23T00:50:54.943Z,40.37
2019-01-23T00:53:23.356Z,42.40
2019-01-23T00:55:51.790Z,38.10
2019-01-23T00:58:20.254Z,34.47
2019-01-23T01:00:48.391Z,44.67
2019-01-23T01:03:16.810Z,41.73
2019-01-23T01:05:45.222Z,40.40
2019-01-23T01:08:13.636Z,34.73
2019-01-23T01:10:42.188Z,42.50
2019-01-23T01:13:10.607Z,41.53
2019-01-23T01:15:58.356Z,47.10
2019-01-23T01:18:26.771Z,33.33
2019-01-23T01:20:54.848Z,36.33
2019-01-23T01:23:23.276Z,34.47
2019-01-23T01:25:52.012Z,41.63
2019-01-23T01:28:20.432Z,43.10
2019-01-23T01:30:48.845Z,45.73
2019-01-23T01:33:16.933Z,34.57
2019-01-23T01:35:45.332Z,48.30
2019-01-23T01:38:13.411Z,46.70
2019-01-23T01:40:41.823Z,41.73
2019-01-23T01:43:10.240Z,43.63
2019-01-23T01:45:38.311Z,44.17
2019-01-23T01:48:06.393Z,44.43
2019-01-23T01:50:34.797Z,36.83
2019-01-23T01:53:03.208Z,40.87
2019-01-23T01:55:31.614Z,43.73
2019-01-23T01:58:00.860Z,44.17
2019-01-23T02:00:29.344Z,36.53
2019-01-23T02:02:57.743Z,41.60
2019-01-23T02:05:26.159Z,35.80
2019-01-23T02:07:54.568Z,38.83
2019-01-23T02:10:23.312Z,39.07
2019-01-23T02:12:51.789Z,36.10
2019-01-23T02:15:20.667Z,44.27
2019-01-23T02:17:49.140Z,43.17
2019-01-23T02:20:22.689Z,35.93
2019-01-23T02:22:51.557Z,38.97
2019-01-23T02:25:20.448Z,40.50
2019-01-23T02:27:49.738Z,47.63
2019-01-23T02:30:22.961Z,46.27
2019-01-23T02:32:51.371Z,36.50
2019-01-23T02:35:19.825Z,41.03
2019-01-23T02:37:48.404Z,44.60
2019-01-23T02:40:18.960Z,38.17
2019-01-23T02:42:47.431Z,35.53
2019-01-23T02:45:16.487Z,41.50
2019-01-23T02:47:44.569Z,39.33
2019-01-23T02:50:14.120Z,41.67
2019-01-23T02:52:42.792Z,38.90
2019-01-23T02:55:11.853Z,41.43
2019-01-23T02:57:40.489Z,38.90
2019-01-23T03:00:17.164Z,43.37
2019-01-23T03:02:46.120Z,38.37
2019-01-23T03:05:16.876Z,38.80
2019-01-23T03:07:45.287Z,38.13
2019-01-23T03:10:16.452Z,39.63
2019-01-23T03:12:44.879Z,45.23
2019-01-23T03:15:15.649Z,44.33
2019-01-23T03:17:44.291Z,42.00
2019-01-23T03:20:15.445Z,50.03
2019-01-23T03:22:43.519Z,47.60
2019-01-23T03:25:13.276Z,33.83
2019-01-23T03:27:41.679Z,45.80
2019-01-23T03:30:13.305Z,38.17
2019-01-23T03:32:41.726Z,37.03
2019-01-23T03:35:10.464Z,43.20
2019-01-23T03:37:38.868Z,48.07
2019-01-23T03:40:10.358Z,35.33
2019-01-23T03:42:38.764Z,39.37
2019-01-23T03:45:09.615Z,36.73
2019-01-23T03:47:38.084Z,45.10
2019-01-23T03:50:09.939Z,42.20
2019-01-23T03:52:38.341Z,39.87
2019-01-23T03:55:08.896Z,45.33
2019-01-23T03:57:37.473Z,43.00
2019-01-23T04:00:07.082Z,43.60
2019-01-23T04:02:35.492Z,61.27
2019-01-23T04:05:06.740Z,51.30
2019-01-23T04:07:35.169Z,45.40
2019-01-23T04:10:05.044Z,42.10
2019-01-23T04:12:33.525Z,46.43
2019-01-23T04:15:01.922Z,44.03
2019-01-23T04:17:30.340Z,52.93
2019-01-23T04:19:58.797Z,49.30
2019-01-23T04:22:27.216Z,41.03
2019-01-23T04:24:55.611Z,47.23
2019-01-23T04:27:24.101Z,52.80
2019-01-23T04:29:52.515Z,43.73
2019-01-23T04:32:20.998Z,42.37
2019-01-23T04:34:49.461Z,46.73
2019-01-23T04:37:17.958Z,42.63
2019-01-23T04:39:46.029Z,53.10
2019-01-23T04:42:14.446Z,47.97
2019-01-23T04:44:42.853Z,49.27
2019-01-23T04:47:11.338Z,52.77
2019-01-23T04:49:39.733Z,51.07
2019-01-23T04:52:09.831Z,38.60
2019-01-23T04:54:38.236Z,42.27
2019-01-23T04:57:06.661Z,43.00
2019-01-23T04:59:35.060Z,51.77
2019-01-23T05:02:03.317Z,44.83
2019-01-23T05:04:31.726Z,45.60
2019-01-23T05:07:00.133Z,43.77
2019-01-23T05:09:47.881Z,46.90
2019-01-23T05:12:16.292Z,41.53
2019-01-23T05:14:44.364Z,43.90
2019-01-23T05:17:12.786Z,42.00
2019-01-23T05:19:41.188Z,36.07
2019-01-23T05:22:09.593Z,39.83
2019-01-23T05:24:38.001Z,37.90
2019-01-23T05:27:06.427Z,37.90
2019-01-23T05:29:34.830Z,31.90
2019-01-23T05:32:02.944Z,36.67
2019-01-23T05:34:31.343Z,40.93
2019-01-23T05:36:59.411Z,37.57
2019-01-23T05:39:27.823Z,49.03
2019-01-23T05:41:56.218Z,54.07
2019-01-23T05:44:24.636Z,57.43
2019-01-23T05:46:53.039Z,43.17
2019-01-23T05:49:21.456Z,44.57
2019-01-23T05:51:49.861Z,50.27
2019-01-23T05:54:18.448Z,40.40
2019-01-23T05:56:47.080Z,37.60
2019-01-23T05:59:15.624Z,38.53
2019-01-23T06:01:44.032Z,49.07
2019-01-23T06:04:12.516Z,51.17
2019-01-23T06:06:40.924Z,42.67
2019-01-23T06:09:09.732Z,46.13
2019-01-23T06:11:38.131Z,44.30
2019-01-23T06:14:06.551Z,55.20
2019-01-23T06:16:34.957Z,42.30
2019-01-23T06:19:03.376Z,45.17
2019-01-23T06:21:31.783Z,34.80
2019-01-23T06:24:00.211Z,48.53
2019-01-23T06:26:28.615Z,59.17
2019-01-23T06:28:57.030Z,58.80
2019-01-23T06:31:25.433Z,55.77
2019-01-23T06:33:53.848Z,58.17
2019-01-23T06:36:22.252Z,65.47
2019-01-23T06:38:50.664Z,48.40
2019-01-23T06:41:19.395Z,58.23
2019-01-23T06:43:47.852Z,55.53
2019-01-23T06:46:15.928Z,50.50
2019-01-23T06:48:44.349Z,50.30
2019-01-23T06:51:12.752Z,53.60
2019-01-23T06:53:41.169Z,58.10
2019-01-23T06:56:09.451Z,55.63
2019-01-23T06:58:37.920Z,60.13
2019-01-23T07:01:06.332Z,61.10
2019-01-23T07:03:34.637Z,66.27
2019-01-23T07:06:03.047Z,56.83
2019-01-23T07:08:31.460Z,60.50
2019-01-23T07:10:59.965Z,58.47
2019-01-23T07:13:28.809Z,63.17
2019-01-23T07:15:57.232Z,75.57
2019-01-23T07:18:25.303Z,60.13
2019-01-23T07:20:53.724Z,58.70
2019-01-23T07:23:21.800Z,75.30
2019-01-23T07:25:49.880Z,65.17
2019-01-23T07:28:17.956Z,70.67
2019-01-23T07:30:46.372Z,60.40
2019-01-23T07:33:14.445Z,67.00
2019-01-23T07:35:42.862Z,59.40
2019-01-23T07:38:11.268Z,76.17
2019-01-23T07:40:39.676Z,58.40
2019-01-23T07:43:07.748Z,57.60
2019-01-23T07:45:36.165Z,62.73
2019-01-23T07:48:04.642Z,62.40
2019-01-23T07:50:33.052Z,73.00
2019-01-23T07:53:01.457Z,72.80
2019-01-23T07:55:29.868Z,83.50
2019-01-23T07:57:58.268Z,71.80
2019-01-23T08:00:31.613Z,58.20
2019-01-23T08:02:57.833Z,57.93
2019-01-23T08:05:26.885Z,73.37
2019-01-23T08:07:55.357Z,73.33
2019-01-23T08:10:24.212Z,76.27
2019-01-23T08:12:52.879Z,58.87
2019-01-23T08:15:24.991Z,57.73
2019-01-23T08:17:53.396Z,49.63
2019-01-23T08:20:24.220Z,60.17
2019-01-23T08:22:52.720Z,52.93
2019-01-23T08:25:21.128Z,50.93
2019-01-23T08:27:49.197Z,62.90
2019-01-23T08:30:20.557Z,52.57
2019-01-23T08:32:49.290Z,56.37
2019-01-23T08:35:19.042Z,57.87
2019-01-23T08:37:47.449Z,63.60
2019-01-23T08:40:19.542Z,54.40
2019-01-23T08:42:47.971Z,71.73
2019-01-23T08:45:16.432Z,61.23
2019-01-23T08:47:44.520Z,64.07
2019-01-23T08:50:14.121Z,69.93
2019-01-23T08:52:42.534Z,47.87
2019-01-23T08:55:10.940Z,50.43
2019-01-23T08:57:39.344Z,54.30
2019-01-23T09:00:11.639Z,61.77
2019-01-23T09:02:39.727Z,47.40
2019-01-23T09:05:09.562Z,54.03
2019-01-23T09:07:38.068Z,50.37
2019-01-23T09:10:17.780Z,51.47
2019-01-23T09:12:46.188Z,43.93
2019-01-23T09:15:16.229Z,48.37
2019-01-23T09:17:44.313Z,54.03
2019-01-23T09:20:15.610Z,38.30
2019-01-23T09:22:44.019Z,55.67
2019-01-23T09:25:15.677Z,48.77
2019-01-23T09:27:44.096Z,51.90
2019-01-23T09:30:36.941Z,58.50
2019-01-23T09:33:26.457Z,58.73
2019-01-23T09:36:18.598Z,63.93
2019-01-23T09:39:05.273Z,63.77
2019-01-23T09:41:45.738Z,59.87
2019-01-23T09:44:38.263Z,62.33
2019-01-23T09:47:15.060Z,54.40
2019-01-23T09:50:07.588Z,57.97
2019-01-23T09:52:44.570Z,63.17
2019-01-23T09:55:13.040Z,52.67
2019-01-23T09:57:44.275Z,56.60
2019-01-23T10:00:18.796Z,60.67
2019-01-23T10:02:47.208Z,62.10
2019-01-23T10:05:15.280Z,62.87
2019-01-23T10:07:43.695Z,55.80
2019-01-23T10:10:15.171Z,51.10
2019-01-23T10:12:43.583Z,43.20
2019-01-23T10:15:21.027Z,53.20
2019-01-23T10:17:49.440Z,49.97
2019-01-23T10:20:17.844Z,49.77
2019-01-23T10:22:47.713Z,48.20
2019-01-23T10:25:16.927Z,62.53
2019-01-23T10:27:45.443Z,53.70
2019-01-23T10:30:15.293Z,45.10
2019-01-23T10:32:43.865Z,44.90
2019-01-23T10:35:17.969Z,39.47
2019-01-23T10:37:46.403Z,50.20
2019-01-23T10:40:18.816Z,47.30
2019-01-23T10:42:47.288Z,47.60
2019-01-23T10:45:16.135Z,53.40
2019-01-23T10:47:45.076Z,53.73
2019-01-23T10:50:16.405Z,47.83
2019-01-23T10:52:44.818Z,45.97
2019-01-23T10:55:14.160Z,48.13
2019-01-23T10:57:42.898Z,48.43
2019-01-23T11:00:14.601Z,55.37
2019-01-23T11:02:43.004Z,38.57
2019-01-23T11:05:14.630Z,40.50
2019-01-23T11:07:42.706Z,44.03
2019-01-23T11:10:16.750Z,40.40
2019-01-23T11:12:45.204Z,52.73
2019-01-23T11:15:14.052Z,55.17
2019-01-23T11:17:42.720Z,48.20
2019-01-23T11:20:14.075Z,47.43
2019-01-23T11:22:42.688Z,42.27
2019-01-23T11:25:13.538Z,37.93
2019-01-23T11:27:41.882Z,42.63
2019-01-23T11:30:16.151Z,48.23
2019-01-23T11:32:44.553Z,51.13
2019-01-23T11:35:13.136Z,52.87
2019-01-23T11:37:41.540Z,36.87
2019-01-23T11:40:16.128Z,40.30
2019-01-23T11:42:44.532Z,47.90
2019-01-23T11:45:13.520Z,37.13
2019-01-23T11:47:41.928Z,48.67
2019-01-23T11:50:21.763Z,36.93
2019-01-23T11:52:47.294Z,45.77
2019-01-23T11:55:15.652Z,40.77
2019-01-23T11:57:44.248Z,44.70
2019-01-23T12:00:18.649Z,41.40
2019-01-23T12:02:47.063Z,43.57
2019-01-23T12:05:18.664Z,50.20
2019-01-23T12:07:47.353Z,44.73
2019-01-23T12:10:18.259Z,45.50
2019-01-23T12:12:46.708Z,55.00
2019-01-23T12:15:16.152Z,51.83
2019-01-23T12:17:44.561Z,51.30
2019-01-23T12:20:13.603Z,42.97
2019-01-23T12:22:42.408Z,44.73
2019-01-23T12:25:12.059Z,40.10
2019-01-23T12:27:40.467Z,48.63
2019-01-23T12:30:17.793Z,45.67
2019-01-23T12:32:46.272Z,43.80
2019-01-23T12:35:14.945Z,40.03
2019-01-23T12:37:43.360Z,43.30
2019-01-23T12:40:14.314Z,37.47
2019-01-23T12:42:42.872Z,39.87
2019-01-23T12:45:20.444Z,48.77
2019-01-23T12:47:48.921Z,43.17
2019-01-23T12:50:18.618Z,47.13
2019-01-23T12:52:47.030Z,49.00
2019-01-23T12:55:15.456Z,50.13
2019-01-23T12:57:43.876Z,45.07
2019-01-23T13:00:15.957Z,43.50
2019-01-23T13:02:44.110Z,36.33
2019-01-23T13:05:15.328Z,38.20
2019-01-23T13:07:43.724Z,38.43
2019-01-23T13:10:15.376Z,43.60
2019-01-23T13:12:43.776Z,43.97
2019-01-23T13:15:18.290Z,38.83
2019-01-23T13:17:46.694Z,41.17
2019-01-23T13:20:15.847Z,34.90
2019-01-23T13:22:44.265Z,38.20
2019-01-23T13:25:21.540Z,40.70
2019-01-23T13:27:50.175Z,39.23
2019-01-23T13:30:20.938Z,35.60
2019-01-23T13:32:49.615Z,44.47
2019-01-23T13:35:20.730Z,33.20
2019-01-23T13:37:49.132Z,51.17
2019-01-23T13:40:23.512Z,36.43
2019-01-23T13:42:51.916Z,34.97
2019-01-23T13:45:20.665Z,43.63
2019-01-23T13:47:49.068Z,36.73
2019-01-23T13:50:17.663Z,33.97
2019-01-23T13:52:46.062Z,34.47
2019-01-23T13:55:22.520Z,45.97
2019-01-23T13:57:51.228Z,45.77
2019-01-23T14:00:25.383Z,37.30
2019-01-23T14:02:53.566Z,36.53
2019-01-23T14:05:21.688Z,33.77
2019-01-23T14:07:50.092Z,39.50
2019-01-23T14:10:18.440Z,43.30
2019-01-23T14:12:46.845Z,39.30
2019-01-23T14:15:18.364Z,39.80
2019-01-23T14:17:46.444Z,43.60
2019-01-23T14:20:16.571Z,38.53
2019-01-23T14:22:44.980Z,50.13
2019-01-23T14:25:15.934Z,48.57
2019-01-23T14:27:44.879Z,39.03
2019-01-23T14:30:35.620Z,42.10
2019-01-23T14:33:04.292Z,44.47
2019-01-23T14:35:32.844Z,49.07
2019-01-23T14:38:01.326Z,38.53
2019-01-23T14:40:29.804Z,36.60
2019-01-23T14:42:58.271Z,41.20
2019-01-23T14:45:26.712Z,39.10
2019-01-23T14:47:55.306Z,42.43
2019-01-23T14:50:25.032Z,40.03
2019-01-23T14:52:54.017Z,43.67
2019-01-23T14:55:23.368Z,39.73
2019-01-23T14:57:51.840Z,35.93
2019-01-23T15:00:28.474Z,41.13
2019-01-23T15:02:57.142Z,37.87
2019-01-23T15:05:25.295Z,42.33
2019-01-23T15:07:53.974Z,39.30
2019-01-23T15:10:24.819Z,40.73
2019-01-23T15:12:53.296Z,43.70
2019-01-23T15:15:21.980Z,46.63
2019-01-23T15:17:50.063Z,38.50
2019-01-23T15:20:21.014Z,35.33
2019-01-23T15:22:49.424Z,39.60
2019-01-23T15:25:18.004Z,30.83
2019-01-23T15:27:46.587Z,34.77
2019-01-23T15:30:18.668Z,32.77
2019-01-23T15:32:46.760Z,37.87
2019-01-23T15:35:15.333Z,39.03
2019-01-23T15:37:43.716Z,30.83
2019-01-23T15:40:15.343Z,40.03
2019-01-23T15:42:43.821Z,39.80
2019-01-23T15:45:12.799Z,36.93
2019-01-23T15:47:41.280Z,44.30
2019-01-23T15:50:10.896Z,38.03
2019-01-23T15:52:39.772Z,39.90
2019-01-23T15:55:11.411Z,34.23
2019-01-23T15:57:39.821Z,36.73
2019-01-23T16:00:17.236Z,44.20
2019-01-23T16:02:45.724Z,31.50
2019-01-23T16:05:14.699Z,36.77
2019-01-23T16:07:43.160Z,32.03
2019-01-23T16:10:17.377Z,32.97
2019-01-23T16:12:46.011Z,25.60
2019-01-23T16:15:17.377Z,33.30
2019-01-23T16:17:45.460Z,36.23
2019-01-23T16:20:13.545Z,38.70
2019-01-23T16:22:41.894Z,38.83
2019-01-23T16:25:13.477Z,34.87
2019-01-23T16:27:41.565Z,37.90
2019-01-23T16:30:20.252Z,40.97
2019-01-23T16:32:48.724Z,40.73
2019-01-23T16:35:17.407Z,40.03
2019-01-23T16:37:45.863Z,42.00
2019-01-23T16:40:14.450Z,36.53
2019-01-23T16:42:43.147Z,40.23
2019-01-23T16:45:19.176Z,39.97
2019-01-23T16:47:47.309Z,36.10
2019-01-23T16:50:18.154Z,34.10
2019-01-23T16:52:46.644Z,46.77
2019-01-23T16:55:15.584Z,46.17
2019-01-23T16:57:44.831Z,35.00
2019-01-23T17:00:19.330Z,30.87
2019-01-23T17:02:47.873Z,34.00
2019-01-23T17:05:19.489Z,30.27
2019-01-23T17:07:50.342Z,31.07
2019-01-23T17:10:21.649Z,33.70
2019-01-23T17:12:50.536Z,43.50
2019-01-23T17:15:19.560Z,40.90
2019-01-23T17:17:48.411Z,30.67
2019-01-23T17:20:24.200Z,38.20
2019-01-23T17:22:52.668Z,34.83
2019-01-23T17:25:20.732Z,41.67
2019-01-23T17:27:49.236Z,24.87
2019-01-23T17:30:19.064Z,47.73
2019-01-23T17:32:47.485Z,36.40
2019-01-23T17:35:18.205Z,33.53
2019-01-23T17:37:46.660Z,37.77
2019-01-23T17:40:16.300Z,41.03
2019-01-23T17:42:45.548Z,42.33
2019-01-23T17:45:17.073Z,34.33
2019-01-23T17:47:45.554Z,37.77
2019-01-23T17:50:17.268Z,32.40
2019-01-23T17:52:45.677Z,32.07
2019-01-23T17:55:17.729Z,37.30
2019-01-23T17:57:46.136Z,37.33
2019-01-23T18:00:21.680Z,48.20
2019-01-23T18:02:52.756Z,42.27
2019-01-23T18:05:20.228Z,36.97
2019-01-23T18:07:48.718Z,37.80
2019-01-23T18:10:16.988Z,38.63
2019-01-23T18:12:45.833Z,42.57
2019-01-23T18:15:15.083Z,53.70
2019-01-23T18:17:43.485Z,37.33
2019-01-23T18:20:14.984Z,43.20
2019-01-23T18:22:43.383Z,34.90
2019-01-23T18:25:13.141Z,37.80
2019-01-23T18:27:41.542Z,41.77
2019-01-23T18:30:17.637Z,43.20
2019-01-23T18:32:46.571Z,43.70
2019-01-23T18:35:23.937Z,44.07
2019-01-23T18:37:55.414Z,39.77
2019-01-23T18:40:43.349Z,36.40
2019-01-23T18:43:37.280Z,38.27
2019-01-23T18:46:12.604Z,30.77
2019-01-23T18:48:51.088Z,35.80
2019-01-23T18:51:20.622Z,35.13
2019-01-23T18:53:48.745Z,40.43
2019-01-23T18:56:17.228Z,36.97
2019-01-23T18:58:45.636Z,31.63
2019-01-23T19:01:14.054Z,38.00
2019-01-23T19:03:42.677Z,34.03
2019-01-23T19:06:11.160Z,31.00
2019-01-23T19:08:39.237Z,28.20
2019-01-23T19:11:07.395Z,43.40
2019-01-23T19:13:35.805Z,37.57
2019-01-23T19:16:05.264Z,30.50
2019-01-23T19:18:33.335Z,45.17
2019-01-23T19:21:01.824Z,45.40
2019-01-23T19:23:30.296Z,36.10
2019-01-23T19:25:58.700Z,35.57
2019-01-23T19:28:26.784Z,34.63
2019-01-23T19:30:55.195Z,36.27
2019-01-23T19:33:23.310Z,33.70
2019-01-23T19:35:51.569Z,39.63
2019-01-23T19:38:19.992Z,36.53
2019-01-23T19:40:51.484Z,33.77
2019-01-23T19:43:19.972Z,39.07
2019-01-23T19:45:48.440Z,35.60
2019-01-23T19:48:16.920Z,30.60
2019-01-23T19:50:45.520Z,38.27
2019-01-23T19:53:13.942Z,35.37
2019-01-23T19:55:42.012Z,39.00
2019-01-23T19:58:10.437Z,33.37
2019-01-23T20:00:38.904Z,35.57
2019-01-23T20:03:07.487Z,41.50
2019-01-23T20:05:35.564Z,46.53
2019-01-23T20:08:04.925Z,40.70
2019-01-23T20:10:33.328Z,34.87
2019-01-23T20:13:01.742Z,42.83
2019-01-23T20:15:29.808Z,35.60
2019-01-23T20:17:58.304Z,57.87
2019-01-23T20:20:26.708Z,38.77
2019-01-23T20:22:54.790Z,39.70
2019-01-23T20:25:25.714Z,48.03
2019-01-23T20:27:54.524Z,34.80
2019-01-23T20:30:29.921Z,46.93
2019-01-23T20:32:58.406Z,31.97
2019-01-23T20:35:26.500Z,39.23
2019-01-23T20:37:54.584Z,43.07
2019-01-23T20:40:22.995Z,37.60
2019-01-23T20:42:51.416Z,38.73
2019-01-23T20:45:19.489Z,33.60
2019-01-23T20:47:47.575Z,37.90
2019-01-23T20:50:19.480Z,40.40
2019-01-23T20:52:47.562Z,39.20
2019-01-23T20:55:15.658Z,35.70
2019-01-23T20:57:44.064Z,35.73
2019-01-23T21:00:20.964Z,36.00
2019-01-23T21:02:49.386Z,35.13
2019-01-23T21:05:18.061Z,33.80
2019-01-23T21:07:46.476Z,54.30
2019-01-23T21:10:17.525Z,53.93
2019-01-23T21:12:45.608Z,33.17
2019-01-23T21:15:16.353Z,36.80
2019-01-23T21:17:44.440Z,33.00
2019-01-23T21:20:13.090Z,35.00
2019-01-23T21:22:41.500Z,33.43
2019-01-23T21:25:10.145Z,37.83
2019-01-23T21:27:38.565Z,48.17
2019-01-23T21:30:15.848Z,38.67
2019-01-23T21:32:44.260Z,31.00
2019-01-23T21:35:13.200Z,31.00
2019-01-23T21:37:41.684Z,34.33
2019-01-23T21:40:13.165Z,36.37
2019-01-23T21:42:41.569Z,42.47
2019-01-23T21:45:13.020Z,41.07
2019-01-23T21:47:41.536Z,32.23
2019-01-23T21:50:13.064Z,31.70
2019-01-23T21:52:41.477Z,28.37
2019-01-23T21:55:10.927Z,30.10
2019-01-23T21:57:39.545Z,34.53
2019-01-23T22:00:17.040Z,21.83
2019-01-23T22:02:45.211Z,33.77
2019-01-23T22:05:14.270Z,28.10
2019-01-23T22:07:42.371Z,30.57
2019-01-23T22:10:13.625Z,27.97
2019-01-23T22:12:42.301Z,26.70
2019-01-23T22:15:12.051Z,31.33
2019-01-23T22:17:40.532Z,29.53
2019-01-23T22:20:17.516Z,34.07
2019-01-23T22:22:45.924Z,29.10
2019-01-23T22:25:16.777Z,30.83
2019-01-23T22:27:45.183Z,29.23
2019-01-23T22:30:14.869Z,30.00
2019-01-23T22:32:43.272Z,31.50
2019-01-23T22:35:11.953Z,31.10
2019-01-23T22:37:40.366Z,33.33
2019-01-23T22:40:10.228Z,33.90
2019-01-23T22:42:38.765Z,25.47
2019-01-23T22:45:08.380Z,28.67
2019-01-23T22:47:36.459Z,32.13
2019-01-23T22:50:13.874Z,27.67
2019-01-23T22:52:42.353Z,25.03
2019-01-23T22:55:11.407Z,28.90
2019-01-23T22:57:39.805Z,25.30
2019-01-23T23:00:20.178Z,34.73
2019-01-23T23:02:48.646Z,30.77
2019-01-23T23:05:17.064Z,29.30
2019-01-23T23:07:45.464Z,28.30
2019-01-23T23:10:14.123Z,32.00
2019-01-23T23:12:42.213Z,31.10
2019-01-23T23:15:12.187Z,38.00
2019-01-23T23:17:40.599Z,36.10
2019-01-23T23:20:11.532Z,27.93
2019-01-23T23:22:39.935Z,29.20
2019-01-23T23:25:08.607Z,33.37
2019-01-23T23:27:39.561Z,26.77
2019-01-23T23:30:11.402Z,40.73
2019-01-23T23:32:39.821Z,31.00
2019-01-23T23:35:08.564Z,35.33
2019-01-23T23:37:36.978Z,31.13
2019-01-23T23:40:08.459Z,35.73
2019-01-23T23:42:36.870Z,32.33
2019-01-23T23:45:08.349Z,35.90
2019-01-23T23:47:36.772Z,28.53
2019-01-23T23:50:08.386Z,28.77
2019-01-23T23:52:36.474Z,29.10
2019-01-23T23:55:07.025Z,36.10
2019-01-23T23:57:35.430Z,30.87
